Terminal Aerodrome Forecast
Issued by NWS Tampa Bay Area, FL

Home | Current Version | Previous Version | Text Only | Print | Product List | Glossary On
Versions: 1 2 3 4 5 6 7 8 9 10 11 12 13 14 15 16 17 18 19 20 21 22 23 24 25
052
FTUS42 KTBW 262320
TAFTPA
TAF
KTPA 262320Z 2700/2724 32008KT P6SM SCT060
     FM270200 04005KT P6SM SCT050
     FM270600 09003KT P6SM FEW040
     FM271400 14005KT P6SM FEW040 SCT250
     FM271900 24007KT P6SM SCT050 SCT250
     FM272100 29008KT P6SM SCT060=

USA.gov is the U.S. government's official web portal to all federal, state and local government web resources and services.